createdAt,value
2022-10-23T00:01:53.514Z,11.34
2022-10-23T00:04:26.137Z,11.34
2022-10-23T00:06:55.178Z,11.33
2022-10-23T00:09:25.476Z,11.32
2022-10-23T00:11:54.593Z,11.30
2022-10-23T00:14:25.866Z,11.30
2022-10-23T00:16:55.357Z,11.32
2022-10-23T00:19:25.976Z,11.35
2022-10-23T00:21:54.861Z,11.37
2022-10-23T00:24:23.635Z,11.40
2022-10-23T00:26:52.635Z,11.43
2022-10-23T00:29:22.091Z,11.45
2022-10-23T00:31:51.707Z,11.47
2022-10-23T00:34:21.068Z,11.50
2022-10-23T00:36:51.582Z,11.51
2022-10-23T00:39:22.227Z,11.52
2022-10-23T00:41:53.068Z,11.46
2022-10-23T00:44:23.480Z,11.42
2022-10-23T00:46:52.726Z,11.40
2022-10-23T00:49:23.609Z,11.36
2022-10-23T00:52:05.625Z,11.35
2022-10-23T00:54:38.815Z,11.35
2022-10-23T00:57:11.997Z,11.33
2022-10-23T00:59:41.920Z,11.31
2022-10-23T01:02:11.837Z,11.28
2022-10-23T01:04:42.237Z,11.24
2022-10-23T01:07:32.786Z,11.19
2022-10-23T01:10:29.948Z,11.15
2022-10-23T01:12:59.190Z,11.13
2022-10-23T01:15:33.127Z,11.08
2022-10-23T01:18:07.573Z,11.04
2022-10-23T01:20:42.194Z,11.00
2022-10-23T01:23:24.231Z,10.97
2022-10-23T01:25:53.355Z,10.98
2022-10-23T01:28:26.993Z,11.06
2022-10-23T01:30:58.113Z,11.09
2022-10-23T01:33:44.194Z,11.06
2022-10-23T01:36:16.046Z,11.04
2022-10-23T01:38:57.051Z,11.00
2022-10-23T01:41:37.090Z,10.98
2022-10-23T01:44:09.900Z,10.98
2022-10-23T01:46:40.533Z,11.00
2022-10-23T01:49:13.028Z,11.02
2022-10-23T01:51:46.813Z,11.10
2022-10-23T01:54:17.228Z,11.15
2022-10-23T01:56:47.338Z,11.19
2022-10-23T01:59:24.001Z,11.24
2022-10-23T02:01:55.360Z,11.28
2022-10-23T02:04:32.015Z,11.33
2022-10-23T02:07:01.315Z,11.36
2022-10-23T02:09:30.897Z,11.40
2022-10-23T02:12:04.048Z,11.46
2022-10-23T02:14:53.010Z,11.51
2022-10-23T02:17:32.614Z,11.55
2022-10-23T02:20:18.086Z,11.57
2022-10-23T02:22:56.809Z,11.61
2022-10-23T02:25:31.425Z,11.62
2022-10-23T02:28:04.921Z,11.64
2022-10-23T02:30:43.995Z,11.65
2022-10-23T02:33:15.017Z,11.67
2022-10-23T02:35:46.439Z,11.66
2022-10-23T02:38:29.596Z,11.66
2022-10-23T02:41:04.512Z,11.66
2022-10-23T02:43:45.041Z,11.64
2022-10-23T02:46:22.908Z,11.62
2022-10-23T02:49:11.721Z,11.60
2022-10-23T02:51:48.725Z,11.58
2022-10-23T02:54:44.037Z,11.55
2022-10-23T02:57:29.100Z,11.55
2022-10-23T02:59:59.111Z,11.52
2022-10-23T03:02:35.057Z,11.51
2022-10-23T03:05:06.227Z,11.51
2022-10-23T03:07:36.305Z,11.50
2022-10-23T03:10:10.310Z,11.46
2022-10-23T03:12:40.136Z,11.43
2022-10-23T03:15:12.312Z,11.42
2022-10-23T03:17:42.436Z,11.36
2022-10-23T03:20:11.954Z,11.35
2022-10-23T03:22:40.916Z,11.36
2022-10-23T03:25:10.732Z,11.32
2022-10-23T03:27:40.051Z,11.30
2022-10-23T03:30:11.369Z,11.28
2022-10-23T03:32:41.387Z,11.27
2022-10-23T03:35:11.434Z,11.25
2022-10-23T03:37:41.658Z,11.26
2022-10-23T03:40:13.274Z,11.25
2022-10-23T03:42:42.893Z,11.26
2022-10-23T03:45:14.546Z,11.24
2022-10-23T03:47:44.676Z,11.23
2022-10-23T03:50:15.010Z,11.21
2022-10-23T03:52:44.493Z,11.21
2022-10-23T03:55:14.443Z,11.16
2022-10-23T03:57:43.412Z,11.14
2022-10-23T04:00:14.306Z,11.14
2022-10-23T04:02:46.762Z,11.10
2022-10-23T04:05:16.627Z,11.10
2022-10-23T04:07:51.148Z,11.10
2022-10-23T04:10:19.835Z,11.09
2022-10-23T04:12:48.619Z,11.06
2022-10-23T04:15:18.048Z,11.05
2022-10-23T04:17:48.463Z,11.00
2022-10-23T04:20:17.143Z,11.01
2022-10-23T04:22:45.950Z,11.00
2022-10-23T04:25:14.827Z,10.97
2022-10-23T04:27:43.840Z,10.97
2022-10-23T04:30:13.110Z,10.97
2022-10-23T04:32:41.894Z,10.97
2022-10-23T04:35:10.484Z,10.98
2022-10-23T04:37:39.486Z,10.96
2022-10-23T04:40:08.687Z,10.97
2022-10-23T04:42:39.242Z,10.95
2022-10-23T04:45:08.416Z,10.94
2022-10-23T04:47:37.721Z,10.92
2022-10-23T04:50:07.905Z,10.92
2022-10-23T04:52:55.857Z,10.92
2022-10-23T04:55:49.622Z,10.91
2022-10-23T04:58:26.089Z,10.91
2022-10-23T05:00:54.840Z,10.90
2022-10-23T05:03:26.478Z,10.86
2022-10-23T05:05:56.342Z,10.86
2022-10-23T05:08:57.257Z,10.90
2022-10-23T05:11:51.985Z,10.89
2022-10-23T05:14:22.963Z,10.90
2022-10-23T05:16:58.360Z,10.92
2022-10-23T05:19:40.660Z,10.94
2022-10-23T05:22:09.563Z,10.92
2022-10-23T05:24:50.638Z,10.91
2022-10-23T05:27:23.740Z,10.94
2022-10-23T05:29:53.950Z,10.94
2022-10-23T05:32:28.071Z,10.95
2022-10-23T05:34:57.052Z,10.96
2022-10-23T05:37:29.118Z,10.97
2022-10-23T05:40:10.803Z,10.92
2022-10-23T05:42:41.819Z,10.97
2022-10-23T05:45:12.685Z,10.99
2022-10-23T05:48:11.048Z,10.99
2022-10-23T05:51:09.649Z,10.98
2022-10-23T05:53:45.609Z,10.99
2022-10-23T05:56:43.779Z,11.00
2022-10-23T05:59:23.090Z,11.02
2022-10-23T06:01:56.130Z,11.02
2022-10-23T06:04:43.218Z,11.03
2022-10-23T06:07:40.891Z,11.01
2022-10-23T06:10:11.001Z,11.00
2022-10-23T06:12:42.551Z,11.01
2022-10-23T06:15:13.387Z,11.01
2022-10-23T06:18:03.176Z,11.01
2022-10-23T06:20:35.543Z,11.04
2022-10-23T06:23:09.145Z,11.05
2022-10-23T06:25:58.118Z,11.09
2022-10-23T06:28:39.197Z,11.14
2022-10-23T06:31:12.267Z,11.19
2022-10-23T06:33:40.953Z,11.25
2022-10-23T06:36:10.910Z,11.30
2022-10-23T06:38:41.011Z,11.37
2022-10-23T06:41:17.159Z,11.41
2022-10-23T06:43:50.548Z,11.42
2022-10-23T06:46:40.425Z,11.47
2022-10-23T06:49:40.960Z,11.51
2022-10-23T06:52:14.476Z,11.53
2022-10-23T06:54:46.831Z,11.56
2022-10-23T06:57:25.856Z,11.61
2022-10-23T06:59:54.541Z,11.62
2022-10-23T07:02:23.132Z,11.64
2022-10-23T07:04:51.499Z,11.64
2022-10-23T07:07:20.803Z,11.66
2022-10-23T07:09:50.311Z,11.65
2022-10-23T07:12:25.135Z,11.60
2022-10-23T07:15:04.478Z,11.60
2022-10-23T07:17:32.850Z,11.59
2022-10-23T07:20:01.131Z,11.59
2022-10-23T07:22:30.121Z,11.58
2022-10-23T07:25:10.889Z,11.60
2022-10-23T07:27:40.367Z,11.63
2022-10-23T07:30:10.717Z,11.65
2022-10-23T07:32:45.236Z,11.68
2022-10-23T07:35:50.381Z,11.63
2022-10-23T07:38:26.332Z,11.73
2022-10-23T07:40:57.994Z,11.75
2022-10-23T07:43:26.810Z,11.87
2022-10-23T07:45:55.872Z,11.98
2022-10-23T07:48:32.854Z,12.10
2022-10-23T07:51:02.261Z,12.10
2022-10-23T07:53:31.883Z,12.22
2022-10-23T07:56:17.239Z,12.30
2022-10-23T07:59:11.015Z,12.48
2022-10-23T08:01:39.767Z,12.67
2022-10-23T08:04:09.712Z,12.77
2022-10-23T08:06:43.416Z,12.80
2022-10-23T08:09:12.103Z,12.75
2022-10-23T08:11:41.401Z,12.73
2022-10-23T08:14:11.007Z,12.63
2022-10-23T08:16:40.514Z,12.57
2022-10-23T08:19:34.903Z,12.52
2022-10-23T08:22:04.201Z,12.48
2022-10-23T08:24:32.783Z,12.42
2022-10-23T08:27:01.265Z,12.37
2022-10-23T08:29:30.265Z,12.32
2022-10-23T08:31:58.636Z,12.30
2022-10-23T08:34:31.826Z,12.28
2022-10-23T08:37:00.822Z,12.22
2022-10-23T08:39:29.402Z,12.19
2022-10-23T08:42:18.883Z,12.21
2022-10-23T08:44:52.788Z,12.23
2022-10-23T08:47:27.819Z,12.23
2022-10-23T08:50:14.974Z,12.31
2022-10-23T08:52:52.633Z,12.33
2022-10-23T08:55:27.668Z,12.33
2022-10-23T08:58:01.885Z,12.33
2022-10-23T09:00:30.674Z,12.35
2022-10-23T09:03:01.098Z,12.33
2022-10-23T09:05:32.240Z,12.29
2022-10-23T09:08:19.253Z,12.30
2022-10-23T09:10:50.624Z,12.28
2022-10-23T09:13:19.910Z,12.28
2022-10-23T09:15:53.812Z,12.34
2022-10-23T09:18:24.550Z,12.41
2022-10-23T09:20:54.360Z,12.53
2022-10-23T09:23:23.555Z,12.65
2022-10-23T09:25:57.220Z,12.75
2022-10-23T09:28:31.471Z,12.89
2022-10-23T09:31:07.734Z,13.00
2022-10-23T09:33:37.507Z,13.08
2022-10-23T09:36:06.030Z,13.06
2022-10-23T09:38:34.306Z,13.12
2022-10-23T09:41:05.545Z,13.19
2022-10-23T09:43:34.235Z,13.24
2022-10-23T09:46:06.601Z,13.29
2022-10-23T09:48:36.113Z,13.32
2022-10-23T09:51:14.214Z,13.31
2022-10-23T09:53:57.236Z,13.32
2022-10-23T09:56:31.452Z,13.33
2022-10-23T09:59:11.916Z,13.32
2022-10-23T10:01:47.821Z,13.35
2022-10-23T10:04:36.527Z,13.41
2022-10-23T10:07:07.063Z,13.41
2022-10-23T10:09:35.239Z,13.44
2022-10-23T10:12:09.855Z,13.49
2022-10-23T10:14:56.972Z,13.57
2022-10-23T10:17:44.489Z,13.62
2022-10-23T10:20:22.192Z,13.63
2022-10-23T10:22:53.956Z,13.65
2022-10-23T10:25:38.096Z,13.62
2022-10-23T10:28:09.445Z,13.60
2022-10-23T10:30:47.655Z,13.52
2022-10-23T10:33:26.373Z,13.46
2022-10-23T10:36:13.559Z,13.45
2022-10-23T10:38:41.975Z,13.44
2022-10-23T10:41:21.620Z,13.41
2022-10-23T10:43:59.110Z,13.39
2022-10-23T10:46:45.311Z,13.42
2022-10-23T10:49:25.973Z,13.50
2022-10-23T10:52:33.466Z,13.58
2022-10-23T10:55:05.837Z,13.69
2022-10-23T10:57:37.288Z,13.79
2022-10-23T11:00:16.233Z,13.86
2022-10-23T11:02:47.661Z,13.84
2022-10-23T11:05:25.460Z,13.80
2022-10-23T11:07:53.738Z,13.73
2022-10-23T11:10:22.426Z,13.64
2022-10-23T11:12:51.522Z,13.58
2022-10-23T11:15:22.865Z,13.50
2022-10-23T11:18:01.696Z,13.41
2022-10-23T11:20:45.293Z,13.35
2022-10-23T11:23:28.350Z,13.37
2022-10-23T11:26:28.776Z,13.42
2022-10-23T11:29:13.744Z,13.45
2022-10-23T11:32:00.761Z,13.51
2022-10-23T11:34:32.313Z,13.60
2022-10-23T11:37:05.304Z,13.61
2022-10-23T11:39:35.212Z,13.66
2022-10-23T11:42:08.309Z,13.70
2022-10-23T11:44:47.130Z,13.70
2022-10-23T11:47:26.562Z,13.71
2022-10-23T11:50:15.215Z,13.73
2022-10-23T11:53:13.107Z,13.83
2022-10-23T11:55:56.517Z,13.89
2022-10-23T11:58:32.336Z,13.97
2022-10-23T12:01:03.989Z,14.05
2022-10-23T12:04:01.488Z,14.13
2022-10-23T12:06:39.384Z,14.21
2022-10-23T12:09:27.939Z,14.33
2022-10-23T12:12:08.607Z,14.55
2022-10-23T12:14:36.878Z,14.86
2022-10-23T12:17:22.872Z,15.05
2022-10-23T12:19:51.658Z,15.22
2022-10-23T12:22:22.529Z,15.16
2022-10-23T12:24:59.784Z,15.16
2022-10-23T12:27:54.309Z,15.13
2022-10-23T12:30:23.886Z,15.17
2022-10-23T12:33:11.106Z,15.22
2022-10-23T12:35:52.379Z,15.24
2022-10-23T12:38:24.444Z,15.05
2022-10-23T12:41:01.123Z,15.01
2022-10-23T12:43:33.798Z,14.94
2022-10-23T12:46:05.766Z,14.79
2022-10-23T12:48:34.653Z,14.67
2022-10-23T12:51:03.136Z,14.61
2022-10-23T12:53:31.519Z,14.50
2022-10-23T12:58:35.540Z,14.34
2022-10-23T13:01:06.940Z,14.36
2022-10-23T13:03:35.676Z,14.41
2022-10-23T13:06:06.098Z,14.49
2022-10-23T13:08:37.349Z,14.83
2022-10-23T13:11:35.625Z,15.36
2022-10-23T13:14:28.884Z,15.83
2022-10-23T13:17:10.881Z,15.92
2022-10-23T13:19:39.160Z,15.79
2022-10-23T13:22:21.877Z,15.60
2022-10-23T13:24:50.257Z,15.55
2022-10-23T13:27:47.708Z,15.40
2022-10-23T13:30:28.480Z,15.29
2022-10-23T13:32:56.858Z,15.19
2022-10-23T13:35:25.137Z,15.05
2022-10-23T13:37:53.715Z,14.99
2022-10-23T13:40:24.041Z,15.19
2022-10-23T13:42:56.006Z,15.14
2022-10-23T13:45:25.924Z,15.10
2022-10-23T13:47:54.392Z,14.93
2022-10-23T13:50:22.675Z,14.71
2022-10-23T13:52:50.954Z,14.48
2022-10-23T13:55:28.960Z,14.36
2022-10-23T13:57:57.336Z,14.27
2022-10-23T14:00:25.613Z,14.19
2022-10-23T14:05:23.499Z,14.12
2022-10-23T14:07:51.876Z,14.06
2022-10-23T14:10:21.742Z,14.15
2022-10-23T14:12:55.199Z,14.25
2022-10-23T14:15:24.173Z,14.89
2022-10-23T14:17:58.020Z,15.59
2022-10-23T14:20:28.309Z,15.80
2022-10-23T14:22:56.799Z,16.39
2022-10-23T14:25:25.366Z,16.98
2022-10-23T14:30:21.813Z,18.12
2022-10-23T14:32:50.503Z,18.36
2022-10-23T14:35:18.876Z,18.37
2022-10-23T14:37:47.257Z,18.20
2022-10-23T14:40:15.536Z,18.05
2022-10-23T14:42:44.156Z,17.90
2022-10-23T14:45:12.802Z,17.56
2022-10-23T14:47:41.295Z,17.32
2022-10-23T14:50:11.198Z,16.97
2022-10-23T14:52:39.407Z,16.59
2022-10-23T14:55:07.951Z,16.31
2022-10-23T14:57:36.332Z,16.21
2022-10-23T15:00:05.630Z,15.90
2022-10-23T15:02:34.419Z,15.54
2022-10-23T15:05:02.796Z,15.15
2022-10-23T15:07:31.281Z,14.80
2022-10-23T15:09:59.865Z,14.31
2022-10-23T15:12:28.145Z,13.88
2022-10-23T15:14:56.416Z,13.52
2022-10-23T15:17:25.101Z,13.22
2022-10-23T15:19:53.576Z,12.93
2022-10-23T15:22:23.357Z,12.61
2022-10-23T15:24:52.495Z,12.40
2022-10-23T15:27:20.871Z,12.20
2022-10-23T15:29:49.244Z,11.96
2022-10-23T15:32:17.389Z,11.77
2022-10-23T15:34:49.992Z,11.59
2022-10-23T15:37:18.271Z,11.44
2022-10-23T15:39:46.651Z,11.28
2022-10-23T15:42:14.926Z,11.09
2022-10-23T15:44:43.355Z,10.91
2022-10-23T15:47:11.689Z,10.70
2022-10-23T15:49:40.362Z,10.52
2022-10-23T15:54:38.460Z,10.11
2022-10-23T15:57:06.733Z,9.95
2022-10-23T15:59:35.010Z,9.81
2022-10-23T16:02:03.564Z,9.68
2022-10-23T16:04:31.974Z,9.57
2022-10-23T16:07:00.550Z,9.45
2022-10-23T16:09:29.647Z,9.35
2022-10-23T16:11:58.025Z,9.23
2022-10-23T16:14:26.196Z,9.14
2022-10-23T16:16:54.592Z,9.05
2022-10-23T16:19:22.850Z,8.97
2022-10-23T16:21:51.227Z,8.90
2022-10-23T16:24:19.838Z,8.84
2022-10-23T16:26:53.456Z,8.79
2022-10-23T16:29:25.996Z,8.74
2022-10-23T16:31:54.572Z,8.68
2022-10-23T16:34:23.066Z,8.61
2022-10-23T16:36:51.330Z,8.55
2022-10-23T16:39:54.729Z,8.48
2022-10-23T16:42:42.089Z,8.41
2022-10-23T16:45:19.137Z,8.36
2022-10-23T16:47:47.306Z,8.33
2022-10-23T16:50:15.890Z,8.29
2022-10-23T16:52:44.477Z,8.24
2022-10-23T16:55:13.055Z,8.18
2022-10-23T16:57:41.228Z,8.13
2022-10-23T17:00:09.707Z,8.10
2022-10-23T17:02:38.494Z,8.09
2022-10-23T17:05:07.076Z,8.06
2022-10-23T17:07:35.254Z,8.02
2022-10-23T17:10:04.039Z,7.97
2022-10-23T17:12:32.418Z,7.91
2022-10-23T17:15:00.794Z,7.86
2022-10-23T17:17:29.073Z,7.79
2022-10-23T17:19:57.351Z,7.72
2022-10-23T17:22:25.830Z,7.69
2022-10-23T17:24:54.327Z,7.64
2022-10-23T17:27:22.791Z,7.62
2022-10-23T17:29:50.969Z,7.62
2022-10-23T17:32:19.139Z,7.62
2022-10-23T17:34:47.312Z,7.60
2022-10-23T17:37:15.689Z,7.58
2022-10-23T17:39:43.964Z,7.51
2022-10-23T17:42:12.347Z,7.46
2022-10-23T17:44:40.621Z,7.38
2022-10-23T17:47:08.895Z,7.32
2022-10-23T17:49:37.601Z,7.26
2022-10-23T17:52:07.087Z,7.23
2022-10-23T17:54:35.264Z,7.21
2022-10-23T17:57:03.434Z,7.21
2022-10-23T17:59:31.606Z,7.21
2022-10-23T18:02:00.931Z,7.19
2022-10-23T18:04:30.003Z,7.18
2022-10-23T18:06:58.179Z,7.14
2022-10-23T18:09:26.554Z,7.10
2022-10-23T18:11:54.828Z,7.05
2022-10-23T18:14:25.179Z,7.01
2022-10-23T18:16:55.682Z,6.98
2022-10-23T18:19:23.863Z,6.94
2022-10-23T18:21:52.542Z,6.92
2022-10-23T18:24:20.920Z,6.88
2022-10-23T18:26:49.403Z,6.88
2022-10-23T18:29:17.781Z,6.87
2022-10-23T18:31:48.387Z,6.84
2022-10-23T18:34:21.710Z,6.83
2022-10-23T18:36:51.004Z,6.78
2022-10-23T18:39:22.791Z,6.71
2022-10-23T18:41:52.368Z,6.64
2022-10-23T18:44:21.380Z,6.60
2022-10-23T18:46:50.146Z,6.61
2022-10-23T18:49:19.244Z,6.62
2022-10-23T18:51:50.096Z,6.60
2022-10-23T18:54:19.788Z,6.59
2022-10-23T18:56:48.782Z,6.60
2022-10-23T18:59:18.489Z,6.57
2022-10-23T19:01:46.777Z,6.51
2022-10-23T19:04:18.224Z,6.45
2022-10-23T19:06:47.620Z,6.39
2022-10-23T19:09:16.613Z,6.31
2022-10-23T19:11:45.809Z,6.24
2022-10-23T19:14:14.088Z,6.20
2022-10-23T19:16:59.869Z,6.16
2022-10-23T19:19:34.088Z,6.17
2022-10-23T19:22:04.117Z,6.19
2022-10-23T19:24:34.633Z,6.24
2022-10-23T19:27:03.315Z,6.26
2022-10-23T19:29:31.803Z,6.24
2022-10-23T19:32:00.379Z,6.19
2022-10-23T19:34:28.758Z,6.19
2022-10-23T19:36:57.034Z,6.19
2022-10-23T19:39:26.693Z,6.18
2022-10-23T19:41:55.125Z,6.18
2022-10-23T19:44:23.478Z,6.15
2022-10-23T19:46:51.879Z,6.12
2022-10-23T19:49:20.160Z,6.10
2022-10-23T19:51:51.279Z,6.11
2022-10-23T19:54:20.804Z,6.11
2022-10-23T19:56:49.392Z,6.11
2022-10-23T19:59:18.379Z,6.08
2022-10-23T20:01:48.894Z,6.06
2022-10-23T20:04:18.547Z,6.05
2022-10-23T20:06:47.097Z,6.06
2022-10-23T20:09:15.892Z,6.05
2022-10-23T20:11:45.585Z,6.01
2022-10-23T20:14:14.392Z,5.95
2022-10-23T20:16:45.252Z,5.87
2022-10-23T20:19:14.879Z,5.84
2022-10-23T20:21:45.048Z,5.83
2022-10-23T20:24:14.963Z,5.74
2022-10-23T20:26:44.476Z,5.70
2022-10-23T20:29:12.951Z,5.70
2022-10-23T20:31:41.948Z,5.74
2022-10-23T20:34:11.154Z,5.77
2022-10-23T20:36:46.725Z,5.81
2022-10-23T20:39:20.018Z,5.84
2022-10-23T20:41:48.374Z,5.82
2022-10-23T20:44:18.411Z,5.75
2022-10-23T20:46:47.376Z,5.72
2022-10-23T20:49:16.191Z,5.70
2022-10-23T20:51:44.737Z,5.68
2022-10-23T20:54:13.014Z,5.65
2022-10-23T20:56:41.417Z,5.62
2022-10-23T20:59:13.864Z,5.60
2022-10-23T21:01:43.396Z,5.59
2022-10-23T21:04:13.286Z,5.61
2022-10-23T21:07:04.419Z,5.60
2022-10-23T21:09:31.959Z,5.53
2022-10-23T21:12:00.338Z,5.49
2022-10-23T21:14:29.228Z,5.44
2022-10-23T21:16:57.608Z,5.44
2022-10-23T21:19:25.887Z,5.46
2022-10-23T21:21:54.569Z,5.45
2022-10-23T21:24:24.380Z,5.45
2022-10-23T21:26:52.864Z,5.38
2022-10-23T21:29:21.244Z,5.28
2022-10-23T21:31:56.991Z,5.18
2022-10-23T21:34:26.407Z,5.10
2022-10-23T21:39:44.564Z,4.98
2022-10-23T21:42:14.375Z,4.92
2022-10-23T21:44:42.946Z,4.87
2022-10-23T21:47:11.753Z,4.84
2022-10-23T21:49:40.621Z,4.79
2022-10-23T21:52:09.222Z,4.73
2022-10-23T21:54:37.557Z,4.69
2022-10-23T21:57:12.834Z,4.68
2022-10-23T21:59:41.416Z,4.64
2022-10-23T22:02:11.210Z,4.60
2022-10-23T22:04:40.319Z,4.59
2022-10-23T22:07:11.238Z,4.57
2022-10-23T22:09:40.249Z,4.55
2022-10-23T22:12:10.421Z,4.55
2022-10-23T22:14:39.663Z,4.57
2022-10-23T22:17:08.358Z,4.59
2022-10-23T22:19:37.061Z,4.59
2022-10-23T22:22:06.241Z,4.59
2022-10-23T22:24:35.918Z,4.60
2022-10-23T22:27:04.633Z,4.58
2022-10-23T22:29:33.828Z,4.57
2022-10-23T22:32:03.381Z,4.57
2022-10-23T22:34:52.653Z,4.56
2022-10-23T22:37:22.540Z,4.56
2022-10-23T22:39:52.745Z,4.57
2022-10-23T22:42:21.944Z,4.60
2022-10-23T22:44:50.829Z,4.63
2022-10-23T22:47:19.735Z,4.64
2022-10-23T22:49:48.306Z,4.66
2022-10-23T22:52:17.400Z,4.67
2022-10-23T22:54:47.926Z,4.65
2022-10-23T22:57:17.179Z,4.63
2022-10-23T22:59:45.578Z,4.63
2022-10-23T23:02:15.005Z,4.64
2022-10-23T23:04:44.111Z,4.64
2022-10-23T23:07:12.995Z,4.63
2022-10-23T23:09:42.714Z,4.60
2022-10-23T23:12:14.066Z,4.55
2022-10-23T23:14:44.775Z,4.52
2022-10-23T23:17:14.517Z,4.49
2022-10-23T23:19:43.872Z,4.49
2022-10-23T23:22:12.886Z,4.49
2022-10-23T23:24:41.678Z,4.49
2022-10-23T23:27:10.689Z,4.51
2022-10-23T23:29:39.896Z,4.52
2022-10-23T23:32:09.172Z,4.53
2022-10-23T23:34:37.641Z,4.54
2022-10-23T23:37:06.950Z,4.52
2022-10-23T23:39:36.359Z,4.50
2022-10-23T23:42:06.079Z,4.46
2022-10-23T23:44:41.905Z,4.45
2022-10-23T23:47:19.556Z,4.42
2022-10-23T23:49:48.816Z,4.42
2022-10-23T23:52:18.522Z,4.43
2022-10-23T23:54:47.421Z,4.45
2022-10-23T23:57:17.243Z,4.30
2022-10-23T23:59:46.935Z,4.15
